createdAt,value
2023-03-16T02:41:01.947Z,23.48
2023-03-16T03:02:01.722Z,23.70
2023-03-16T03:03:01.751Z,23.73
2023-03-16T03:04:01.698Z,23.73
2023-03-16T03:05:01.692Z,23.75
2023-03-16T03:06:01.732Z,23.76
2023-03-16T03:07:01.779Z,23.77
2023-03-16T03:08:01.838Z,23.79
2023-03-16T03:09:01.803Z,23.80
2023-03-16T03:10:01.832Z,23.82
2023-03-16T03:11:01.860Z,23.83
2023-03-16T03:12:01.888Z,23.83
2023-03-16T03:13:01.913Z,23.84
2023-03-16T03:14:01.969Z,23.85
2023-03-16T03:15:01.971Z,23.86
2023-03-16T03:16:02.066Z,23.87
2023-03-16T03:17:02.025Z,23.89
2023-03-16T03:18:02.027Z,23.90
2023-03-16T03:19:02.060Z,23.92
2023-03-16T03:20:02.135Z,23.93
2023-03-16T03:21:02.114Z,23.93
2023-03-16T03:22:02.144Z,23.95
2023-03-16T03:23:02.135Z,23.96
2023-03-16T03:24:02.191Z,23.97
2023-03-16T03:25:02.222Z,23.98
2023-03-16T03:26:02.257Z,23.99
2023-03-16T03:27:02.287Z,23.99
2023-03-16T03:28:02.408Z,24.00
2023-03-16T03:29:02.389Z,24.02
2023-03-16T03:30:02.404Z,24.02
2023-03-16T03:31:02.466Z,24.03
2023-03-16T03:32:02.474Z,24.05
2023-03-16T03:33:02.556Z,24.06
2023-03-16T03:34:02.547Z,24.07
2023-03-16T03:35:02.533Z,24.08
2023-03-16T03:36:02.639Z,24.08
2023-03-16T03:37:02.589Z,24.08
2023-03-16T03:40:02.660Z,24.10
2023-03-16T05:27:04.185Z,24.32
2023-03-16T05:30:04.248Z,24.32
2023-03-16T05:31:04.282Z,24.32
2023-03-16T05:32:04.281Z,24.31
2023-03-16T05:33:04.347Z,24.32
2023-03-16T05:35:04.306Z,24.31
2023-03-16T05:36:04.342Z,24.31
2023-03-16T05:37:04.337Z,24.31
2023-03-16T05:38:04.360Z,24.31
2023-03-16T05:39:04.363Z,24.30
2023-03-16T05:40:04.403Z,24.30
2023-03-16T05:41:05.938Z,24.30
2023-03-16T05:42:04.397Z,24.30
2023-03-16T05:43:04.443Z,24.29
2023-03-16T05:44:04.513Z,24.29
2023-03-16T05:45:04.458Z,24.29
2023-03-16T05:46:04.477Z,24.30
2023-03-16T05:47:04.601Z,24.29
2023-03-16T05:48:04.511Z,24.29
2023-03-16T05:49:04.630Z,24.29
2023-03-16T05:50:04.559Z,24.30
2023-03-16T05:51:04.583Z,24.29
2023-03-16T05:52:04.566Z,24.29
2023-03-16T05:53:04.552Z,24.29
2023-03-16T05:54:04.560Z,24.29
2023-03-16T05:55:04.554Z,24.30
2023-03-16T05:56:04.581Z,24.29
2023-03-16T05:57:04.535Z,24.29
2023-03-16T05:58:05.870Z,24.29
2023-03-16T05:59:04.567Z,24.29
2023-03-16T06:00:04.539Z,24.29
2023-03-16T06:01:11.542Z,24.29
2023-03-16T06:02:04.533Z,24.29
2023-03-16T06:03:04.598Z,24.29
2023-03-16T06:04:04.513Z,24.29
2023-03-16T06:05:04.519Z,24.29
2023-03-16T06:06:04.382Z,24.29
2023-03-16T06:07:04.368Z,24.29
2023-03-16T06:08:04.334Z,24.29
2023-03-16T06:09:04.269Z,24.29
2023-03-16T06:10:04.262Z,24.30
2023-03-16T06:11:04.226Z,24.30
2023-03-16T06:12:04.163Z,24.29
2023-03-16T06:13:04.151Z,24.29
2023-03-16T06:14:04.109Z,24.29
2023-03-16T06:15:04.085Z,24.30
2023-03-16T06:29:03.632Z,24.30
2023-03-16T06:30:03.630Z,24.29
2023-03-16T06:31:03.645Z,24.29
2023-03-16T06:32:03.700Z,24.29
2023-03-16T06:33:03.765Z,24.28
2023-03-16T06:34:04.128Z,24.29
2023-03-16T06:35:03.762Z,24.29
2023-03-16T06:36:03.847Z,24.29
2023-03-16T06:37:03.773Z,24.30
2023-03-16T06:38:03.802Z,24.30
2023-03-16T06:39:03.858Z,24.30
2023-03-16T06:40:03.847Z,24.27
2023-03-16T06:41:03.805Z,24.20
2023-03-16T06:42:03.866Z,24.10
2023-03-16T06:43:03.942Z,24.04
2023-03-16T06:45:03.941Z,23.96
2023-03-16T06:46:11.024Z,23.88
2023-03-16T06:47:03.898Z,23.87
2023-03-16T06:48:03.863Z,23.90
2023-03-16T06:49:03.856Z,23.93
2023-03-16T06:50:03.800Z,23.97
2023-03-16T06:51:03.774Z,24.00
2023-03-16T06:52:03.744Z,24.03
2023-03-16T06:53:03.727Z,24.03
2023-03-16T06:54:03.737Z,24.03
2023-03-16T06:55:03.643Z,24.03
2023-03-16T06:56:03.626Z,24.03
2023-03-16T06:57:03.609Z,24.06
2023-03-16T06:58:03.572Z,24.09
2023-03-16T06:59:03.477Z,24.14
2023-03-16T07:00:03.621Z,24.17
2023-03-16T07:01:03.523Z,24.23
2023-03-16T07:02:03.465Z,24.29
2023-03-16T07:03:03.467Z,24.33
2023-03-16T07:04:03.413Z,24.38
2023-03-16T07:05:03.667Z,24.43
2023-03-16T07:06:03.281Z,24.46
2023-03-16T07:07:03.225Z,24.49
2023-03-16T07:08:03.217Z,24.53
2023-03-16T07:09:03.186Z,24.57
2023-03-16T07:10:03.129Z,24.60
2023-03-16T07:11:03.093Z,24.62
2023-03-16T07:12:03.021Z,24.64
2023-03-16T07:13:03.040Z,24.67
2023-03-16T07:14:03.051Z,24.68
2023-03-16T07:15:03.161Z,24.70
2023-03-16T07:16:03.039Z,24.73
2023-03-16T07:17:04.122Z,24.73
2023-03-16T07:18:02.995Z,24.76
2023-03-16T07:19:02.989Z,24.76
2023-03-16T07:20:02.975Z,24.77
2023-03-16T07:21:02.948Z,24.78
2023-03-16T07:22:02.931Z,24.79
2023-03-16T07:23:02.900Z,24.81
2023-03-16T07:24:02.865Z,24.81
2023-03-16T07:25:03.192Z,24.82
2023-03-16T07:26:02.809Z,24.83
2023-03-16T07:27:02.812Z,24.83
2023-03-16T07:28:02.758Z,24.85
2023-03-16T07:29:02.726Z,24.85
2023-03-16T07:30:02.715Z,24.86
2023-03-16T07:31:04.390Z,24.86
2023-03-16T07:32:02.746Z,24.87
2023-03-16T07:33:02.624Z,24.88
2023-03-16T07:34:02.608Z,24.90
2023-03-16T07:35:02.540Z,24.89
2023-03-16T07:36:02.528Z,24.90
2023-03-16T07:37:02.493Z,24.90
2023-03-16T07:38:02.464Z,24.89
2023-03-16T07:39:02.423Z,24.84
2023-03-16T07:41:02.688Z,24.11
2023-03-16T07:42:02.485Z,23.73
2023-03-16T07:43:02.455Z,23.51
2023-03-16T07:48:02.425Z,23.56
2023-03-16T07:49:02.371Z,23.63
2023-03-16T07:50:02.413Z,23.72
2023-03-16T07:51:02.671Z,23.82
2023-03-16T07:52:02.424Z,23.93
2023-03-16T07:53:02.427Z,24.03
2023-03-16T07:54:02.462Z,24.14
2023-03-16T07:55:02.495Z,24.22
2023-03-16T07:56:02.681Z,24.31
2023-03-16T07:57:02.533Z,24.38
2023-03-16T07:58:02.534Z,24.47
2023-03-16T07:59:02.531Z,24.52
2023-03-16T08:00:02.501Z,24.59
2023-03-16T08:01:02.536Z,24.63
2023-03-16T08:02:02.517Z,24.68
2023-03-16T08:03:02.507Z,24.74
2023-03-16T08:04:02.570Z,24.77
2023-03-16T08:05:02.533Z,24.80
2023-03-16T08:06:02.473Z,24.84
2023-03-16T08:07:02.499Z,24.88
2023-03-16T08:08:02.423Z,24.90
2023-03-16T08:56:21.803Z,24.07
2023-03-16T09:04:22.325Z,24.22
2023-03-16T09:06:21.799Z,24.27
2023-03-16T09:11:21.797Z,24.29
2023-03-16T09:31:22.336Z,24.14
2023-03-16T09:36:21.840Z,24.14
2023-03-16T09:41:21.608Z,23.98
2023-03-16T09:42:21.809Z,23.94
2023-03-16T09:45:21.664Z,23.94
2023-03-16T09:46:21.816Z,23.90
2023-03-16T09:47:21.739Z,23.81
2023-03-16T09:48:21.768Z,23.72
2023-03-16T09:49:21.857Z,23.57
2023-03-16T09:50:21.977Z,23.55
2023-03-16T09:51:22.030Z,23.55
2023-03-16T09:52:22.307Z,23.54
2023-03-16T09:53:22.126Z,23.61
2023-03-16T09:54:22.167Z,23.68
2023-03-16T09:55:22.236Z,23.73
2023-03-16T09:56:22.228Z,23.71
2023-03-16T09:57:22.316Z,23.57
2023-03-16T09:58:22.431Z,23.51
2023-03-16T09:59:22.476Z,23.42
2023-03-16T10:00:22.567Z,23.30
2023-03-16T10:01:22.588Z,23.01
2023-03-16T10:02:22.618Z,22.51
2023-03-16T10:03:22.768Z,21.99
2023-03-16T10:04:22.791Z,21.83
2023-03-16T10:05:22.821Z,21.50
2023-03-16T10:06:22.855Z,21.40
2023-03-16T10:07:22.963Z,21.30
2023-03-16T10:08:23.006Z,20.99
2023-03-16T10:09:23.076Z,20.81
2023-03-16T10:10:23.171Z,20.65
2023-03-16T10:11:23.277Z,20.35
2023-03-16T10:12:23.897Z,19.96
2023-03-16T10:13:23.418Z,19.81
2023-03-16T10:14:23.523Z,19.76
2023-03-16T10:15:23.685Z,19.61
2023-03-16T10:16:23.762Z,19.53
2023-03-16T10:17:23.819Z,19.53
2023-03-16T10:18:23.932Z,19.70
2023-03-16T10:19:23.957Z,19.91
2023-03-16T10:20:24.095Z,20.15
2023-03-16T10:21:24.150Z,20.38
2023-03-16T10:22:24.251Z,20.60
2023-03-16T10:23:24.340Z,20.84
2023-03-16T10:24:24.415Z,21.05
2023-03-16T10:25:24.477Z,21.25
2023-03-16T10:26:24.518Z,21.45
2023-03-16T10:27:24.625Z,21.63
2023-03-16T10:28:24.731Z,21.80
2023-03-16T10:29:24.800Z,21.94
2023-03-16T10:30:24.898Z,22.08
2023-03-16T10:31:24.988Z,22.21
2023-03-16T10:32:25.031Z,22.33
2023-03-16T10:33:25.055Z,22.43
2023-03-16T10:34:25.070Z,22.53
2023-03-16T10:35:25.113Z,22.63
2023-03-16T10:36:25.209Z,22.72
2023-03-16T10:37:25.354Z,22.80
2023-03-16T10:38:25.191Z,22.87
2023-03-16T10:39:25.253Z,22.94
2023-03-16T10:40:25.313Z,23.01
2023-03-16T10:41:25.422Z,23.03
2023-03-16T10:42:25.853Z,23.03
2023-03-16T10:43:25.477Z,23.03
2023-03-16T10:44:25.482Z,23.04
2023-03-16T10:45:25.542Z,23.07
2023-03-16T10:46:25.653Z,23.12
2023-03-16T10:47:25.903Z,23.19
2023-03-16T10:48:25.641Z,23.25
2023-03-16T10:49:25.747Z,23.28
2023-03-16T10:50:25.727Z,23.30
2023-03-16T10:51:25.763Z,23.32
2023-03-16T10:52:25.840Z,23.31
2023-03-16T10:53:25.884Z,23.33
2023-03-16T10:54:25.941Z,23.35
2023-03-16T10:55:25.961Z,23.35
2023-03-16T10:56:26.005Z,23.36
2023-03-16T10:57:26.093Z,23.38
2023-03-16T10:58:26.173Z,23.39
2023-03-16T10:59:26.265Z,23.42
2023-03-16T11:00:26.344Z,23.43
2023-03-16T11:01:26.391Z,23.45
2023-03-16T11:02:26.885Z,23.46
2023-03-16T11:03:26.497Z,23.46
2023-03-16T11:04:26.562Z,23.47
2023-03-16T11:05:26.545Z,23.47
2023-03-16T11:06:26.575Z,23.47
2023-03-16T11:07:26.678Z,23.50
2023-03-16T11:08:26.720Z,23.51
2023-03-16T11:09:26.773Z,23.51
2023-03-16T11:10:26.847Z,23.51
2023-03-16T11:11:26.874Z,23.52
2023-03-16T11:12:27.000Z,23.51
2023-03-16T11:13:27.014Z,23.51
2023-03-16T11:14:27.090Z,23.52
2023-03-16T11:15:27.135Z,23.52
2023-03-16T11:16:27.278Z,23.54
2023-03-16T11:17:27.327Z,23.55
2023-03-16T11:18:28.369Z,23.55
2023-03-16T11:19:27.374Z,23.55
2023-03-16T11:20:27.474Z,23.57
2023-03-16T11:21:27.624Z,23.57
2023-03-16T11:22:28.878Z,23.58
2023-03-16T11:23:27.728Z,23.57
2023-03-16T11:24:27.810Z,23.58
2023-03-16T11:25:28.113Z,23.58
2023-03-16T11:26:27.924Z,23.57
2023-03-16T11:27:28.442Z,23.57
2023-03-16T11:28:28.112Z,23.56
2023-03-16T11:29:28.164Z,23.56
2023-03-16T11:30:28.269Z,23.57
2023-03-16T11:31:28.330Z,23.57
2023-03-16T11:32:28.460Z,23.54
2023-03-16T11:33:28.490Z,23.52
2023-03-16T11:34:28.583Z,23.51
2023-03-16T11:35:28.979Z,23.49
2023-03-16T11:36:28.812Z,23.50
2023-03-16T11:37:28.817Z,23.47
2023-03-16T11:38:29.511Z,23.45
2023-03-16T11:39:28.926Z,23.47
2023-03-16T11:40:28.967Z,23.50
2023-03-16T11:41:29.076Z,23.52
2023-03-16T11:42:29.178Z,23.53
2023-03-16T11:43:29.365Z,23.53
2023-03-16T11:44:29.241Z,23.53
2023-03-16T11:45:29.606Z,23.54
2023-03-16T11:46:29.458Z,23.53
2023-03-16T11:47:29.471Z,23.53
2023-03-16T11:48:29.877Z,23.51
2023-03-16T11:49:29.610Z,23.51
2023-03-16T11:50:29.701Z,23.49
2023-03-16T11:51:29.721Z,23.49
2023-03-16T11:52:29.852Z,23.47
2023-03-16T11:53:30.371Z,23.46
2023-03-16T11:54:29.987Z,23.45
2023-03-16T11:55:30.475Z,23.44
2023-03-16T11:56:30.185Z,23.43
2023-03-16T11:57:30.250Z,23.42
2023-03-16T11:58:30.322Z,23.40
2023-03-16T11:59:30.386Z,23.38
2023-03-16T12:00:30.415Z,23.37
2023-03-16T12:01:30.841Z,23.36
2023-03-16T12:02:30.604Z,23.37
2023-03-16T12:03:30.990Z,23.39
2023-03-16T12:04:30.756Z,23.42
2023-03-16T12:05:31.120Z,23.45
2023-03-16T12:06:30.746Z,23.48
2023-03-16T12:07:30.789Z,23.49
2023-03-16T12:08:30.863Z,23.51
2023-03-16T12:09:30.933Z,23.53
2023-03-16T12:10:31.014Z,23.54
2023-03-16T12:11:31.086Z,23.56
2023-03-16T12:12:31.148Z,23.57
2023-03-16T12:13:31.442Z,23.58
2023-03-16T12:14:31.306Z,23.60
2023-03-16T12:15:31.989Z,23.60
2023-03-16T12:16:46.315Z,23.61
2023-03-16T12:17:32.462Z,23.61
2023-03-16T12:18:31.508Z,23.63
2023-03-16T12:19:31.481Z,23.64
2023-03-16T12:20:31.511Z,23.65
2023-03-16T12:21:31.533Z,23.65
2023-03-16T12:22:31.535Z,23.66
2023-03-16T12:23:31.556Z,23.67
2023-03-16T12:24:31.881Z,23.67
2023-03-16T12:25:31.598Z,23.68
2023-03-16T12:26:31.589Z,23.69
2023-03-16T12:27:31.683Z,23.70
2023-03-16T12:28:31.722Z,23.71
2023-03-16T12:29:32.871Z,23.71
2023-03-16T12:30:31.846Z,23.71
2023-03-16T12:31:32.004Z,23.72
2023-03-16T12:32:32.010Z,23.73
2023-03-16T12:33:32.030Z,23.72
2023-03-16T12:34:32.407Z,23.72
2023-03-16T12:35:32.677Z,23.74
2023-03-16T12:36:32.255Z,23.74
2023-03-16T12:37:32.339Z,23.75
2023-03-16T12:38:32.365Z,23.74
2023-03-16T12:39:32.430Z,23.74
2023-03-16T12:40:32.475Z,23.75
2023-03-16T12:41:32.565Z,23.75
2023-03-16T12:42:32.676Z,23.76
2023-03-16T12:43:32.729Z,23.76
2023-03-16T12:44:32.754Z,23.77
2023-03-16T12:45:32.898Z,23.76
2023-03-16T12:46:32.861Z,23.77
2023-03-16T12:47:33.003Z,23.77
2023-03-16T12:48:32.984Z,23.78
2023-03-16T12:49:33.050Z,23.78
2023-03-16T12:50:33.087Z,23.78
2023-03-16T12:51:33.177Z,23.79
2023-03-16T12:52:33.281Z,23.79
2023-03-16T12:53:33.325Z,23.79
2023-03-16T12:54:33.390Z,23.79
2023-03-16T12:55:33.406Z,23.79
2023-03-16T12:56:33.460Z,23.79
2023-03-16T12:57:33.516Z,23.80
2023-03-16T12:58:33.586Z,23.80
2023-03-16T12:59:33.667Z,23.80
2023-03-16T13:00:33.734Z,23.80
2023-03-16T13:01:33.833Z,23.81
2023-03-16T13:02:33.849Z,23.81
2023-03-16T13:03:33.882Z,23.80
2023-03-16T13:04:34.074Z,23.81
2023-03-16T13:05:34.014Z,23.81
2023-03-16T13:06:36.301Z,23.81
2023-03-16T13:07:34.166Z,23.81
2023-03-16T13:08:34.216Z,23.81
2023-03-16T13:09:34.294Z,23.82
2023-03-16T13:10:34.364Z,23.82
2023-03-16T13:11:34.385Z,23.82
2023-03-16T13:12:34.453Z,23.82
2023-03-16T13:13:34.498Z,23.82
2023-03-16T13:14:34.542Z,23.83
2023-03-16T13:15:34.644Z,23.82
2023-03-16T13:16:34.753Z,23.83
2023-03-16T13:17:35.829Z,23.82
2023-03-16T13:19:34.916Z,23.83
2023-03-16T13:25:35.252Z,23.83
2023-03-16T13:32:35.706Z,23.83
2023-03-16T13:33:35.743Z,23.84
2023-03-16T13:34:35.803Z,23.83
2023-03-16T13:35:38.753Z,23.84
2023-03-16T13:36:35.852Z,23.83
2023-03-16T13:37:35.896Z,23.83
2023-03-16T13:38:35.900Z,23.83
2023-03-16T13:39:35.894Z,23.84
2023-03-16T13:40:35.915Z,23.85
2023-03-16T13:41:35.924Z,23.84
2023-03-16T13:42:35.931Z,23.85
2023-03-16T13:43:35.939Z,23.85
2023-03-16T13:44:36.019Z,23.85
2023-03-16T13:45:36.013Z,23.85
2023-03-16T13:46:36.012Z,23.85
2023-03-16T13:47:36.028Z,23.83
2023-03-16T13:48:36.019Z,23.84
2023-03-16T13:49:36.018Z,23.85
2023-03-16T13:50:36.083Z,23.85
2023-03-16T13:51:36.065Z,23.85
2023-03-16T13:52:36.058Z,23.85
2023-03-16T13:53:36.078Z,23.84
2023-03-16T13:54:36.100Z,23.82
2023-03-16T13:55:36.107Z,23.82
2023-03-16T13:56:36.116Z,23.82
2023-03-16T13:57:36.151Z,23.83
2023-03-16T13:58:36.184Z,23.83
2023-03-16T13:59:36.223Z,23.83
2023-03-16T14:00:36.205Z,23.84
2023-03-16T14:01:36.256Z,23.84
2023-03-16T14:02:36.348Z,23.84
2023-03-16T14:03:36.253Z,23.85
2023-03-16T14:04:36.276Z,23.86
2023-03-16T14:05:36.305Z,23.85
2023-03-16T14:06:36.284Z,23.86
2023-03-16T14:07:36.322Z,23.85
2023-03-16T14:08:36.348Z,23.86
2023-03-16T14:09:36.337Z,23.87
2023-03-16T14:10:36.334Z,23.86
2023-03-16T14:11:36.392Z,23.86
2023-03-16T14:12:36.382Z,23.87
2023-03-16T14:13:36.402Z,23.87
2023-03-16T14:14:36.425Z,23.87
2023-03-16T14:15:36.499Z,23.86
2023-03-16T14:16:36.448Z,23.87
2023-03-16T14:17:36.456Z,23.86
2023-03-16T14:18:36.459Z,23.86
2023-03-16T14:19:36.470Z,23.86
2023-03-16T14:20:41.252Z,23.87
2023-03-16T14:21:37.477Z,23.86
2023-03-16T14:22:36.491Z,23.86
2023-03-16T14:23:36.500Z,23.87
2023-03-16T14:24:36.531Z,23.86
2023-03-16T14:25:36.525Z,23.87
2023-03-16T16:52:42.006Z,24.07
2023-03-16T17:05:41.680Z,24.00
2023-03-16T17:06:41.739Z,23.99
2023-03-16T17:07:41.826Z,23.98
2023-03-16T17:08:41.836Z,23.98
2023-03-16T17:09:41.928Z,23.98
2023-03-16T17:10:41.971Z,23.97
2023-03-16T17:11:42.004Z,23.97
2023-03-16T17:12:42.044Z,23.97
2023-03-16T17:13:42.132Z,23.96
2023-03-16T17:14:42.188Z,23.95
2023-03-16T17:15:42.208Z,23.95
2023-03-16T17:16:42.319Z,23.95
2023-03-16T17:17:42.332Z,23.94
2023-03-16T17:18:42.395Z,23.93
2023-03-16T17:19:42.466Z,23.94
2023-03-16T17:20:42.576Z,23.93
2023-03-16T17:21:42.555Z,23.93
2023-03-16T17:22:42.711Z,23.92
2023-03-16T17:23:42.678Z,23.91
2023-03-16T17:24:42.757Z,23.91
2023-03-16T17:25:42.791Z,23.90
2023-03-16T17:26:42.844Z,23.90
2023-03-16T17:27:42.943Z,23.89
2023-03-16T17:28:42.960Z,23.89
2023-03-16T17:29:43.124Z,23.89
2023-03-16T17:30:43.208Z,23.89
2023-03-16T17:31:43.200Z,23.88
2023-03-16T17:32:43.291Z,23.88
2023-03-16T17:33:43.318Z,23.86
2023-03-16T17:34:43.405Z,23.87
2023-03-16T17:35:43.437Z,23.86
2023-03-16T17:36:43.512Z,23.86
2023-03-16T17:37:43.549Z,23.86
2023-03-16T17:38:43.656Z,23.85
2023-03-16T17:39:43.711Z,23.86
2023-03-16T17:40:43.755Z,23.86
2023-03-16T17:41:43.855Z,23.85
2023-03-16T17:42:43.866Z,23.84
2023-03-16T17:43:43.928Z,23.84
2023-03-16T17:44:44.020Z,23.84
2023-03-16T17:45:44.078Z,23.83
2023-03-16T17:46:44.175Z,23.83
2023-03-16T17:47:44.178Z,23.82
2023-03-16T17:48:44.256Z,23.83
2023-03-16T17:49:44.349Z,23.82
2023-03-16T17:50:44.376Z,23.82
2023-03-16T17:51:44.432Z,23.81
2023-03-16T17:52:44.480Z,23.81
2023-03-16T17:53:44.554Z,23.81
2023-03-16T17:54:44.643Z,23.81
2023-03-16T17:55:44.686Z,23.81
2023-03-16T17:56:44.774Z,23.80
2023-03-16T17:57:44.810Z,23.80
2023-03-16T17:58:44.894Z,23.80
2023-03-16T17:59:44.950Z,23.79
2023-03-16T18:00:45.052Z,23.78
2023-03-16T18:01:45.127Z,23.79
2023-03-16T18:02:45.138Z,23.78
2023-03-16T18:03:45.244Z,23.78
2023-03-16T18:04:45.263Z,23.77
2023-03-16T18:05:45.349Z,23.77
2023-03-16T18:06:45.404Z,23.77
2023-03-16T18:07:45.458Z,23.76
2023-03-16T18:08:48.285Z,23.76
2023-03-16T18:09:45.587Z,23.76
2023-03-16T18:10:45.583Z,23.76
2023-03-16T18:11:45.565Z,23.76
2023-03-16T18:12:45.608Z,23.75
2023-03-16T18:13:45.613Z,23.76
2023-03-16T18:14:45.641Z,23.75
2023-03-16T18:15:45.726Z,23.74
2023-03-16T18:16:45.704Z,23.74
2023-03-16T18:17:45.681Z,23.75
2023-03-16T18:18:45.716Z,23.73
2023-03-16T18:19:45.710Z,23.73
2023-03-16T18:20:45.699Z,23.73
2023-03-16T18:21:45.752Z,23.73
2023-03-16T18:22:45.748Z,23.73
2023-03-16T18:23:45.751Z,23.72
2023-03-16T18:24:45.787Z,23.72
2023-03-16T18:25:45.808Z,23.73
2023-03-16T18:26:45.801Z,23.72
2023-03-16T18:27:45.817Z,23.72
2023-03-16T18:28:45.829Z,23.72
2023-03-16T18:29:45.861Z,23.71
2023-03-16T18:30:45.894Z,23.71
2023-03-16T18:31:45.950Z,23.71
2023-03-16T18:32:45.930Z,23.71
2023-03-16T18:33:45.926Z,23.71
2023-03-16T18:34:45.913Z,23.70
2023-03-16T18:35:45.957Z,23.69
2023-03-16T18:36:45.977Z,23.70
2023-03-16T18:37:45.953Z,23.69
2023-03-16T18:38:46.014Z,23.70
2023-03-16T18:39:46.004Z,23.69
2023-03-16T18:40:46.029Z,23.69
2023-03-16T18:41:46.071Z,23.69
2023-03-16T18:42:46.063Z,23.69
2023-03-16T18:43:46.069Z,23.69
2023-03-16T18:44:46.110Z,23.69
2023-03-16T18:45:46.105Z,23.68
2023-03-16T18:46:46.278Z,23.68
2023-03-16T18:47:46.153Z,23.68
2023-03-16T18:48:46.125Z,23.67
2023-03-16T18:49:46.165Z,23.68
2023-03-16T18:50:46.178Z,23.67
2023-03-16T18:51:46.182Z,23.66
2023-03-16T18:52:46.212Z,23.66
2023-03-16T18:53:46.224Z,23.67
2023-03-16T18:54:46.245Z,23.67
2023-03-16T18:55:46.293Z,23.66
2023-03-16T18:56:46.319Z,23.66
2023-03-16T18:57:46.398Z,23.66
2023-03-16T18:58:46.436Z,23.66
2023-03-16T18:59:46.514Z,23.66
2023-03-16T19:00:46.569Z,23.65
2023-03-16T19:01:46.683Z,23.64
2023-03-16T19:02:46.666Z,23.64
2023-03-16T19:03:46.705Z,23.64
2023-03-16T19:04:46.789Z,23.64
2023-03-16T19:05:46.872Z,23.64
2023-03-16T19:06:46.924Z,23.63
2023-03-16T19:07:46.986Z,23.63
2023-03-16T19:08:47.043Z,23.63
2023-03-16T19:09:47.108Z,23.62
2023-03-16T19:10:47.177Z,23.62
2023-03-16T19:11:47.264Z,23.62
2023-03-16T19:12:47.392Z,23.63
2023-03-16T19:13:47.402Z,23.62
2023-03-16T19:14:47.571Z,23.62
2023-03-16T19:15:47.574Z,23.61
2023-03-16T19:16:47.679Z,23.61
2023-03-16T19:17:47.753Z,23.61
2023-03-16T19:18:47.806Z,23.61
2023-03-16T19:19:47.867Z,23.60
2023-03-16T19:20:50.120Z,23.60
2023-03-16T19:21:47.980Z,23.59
2023-03-16T19:22:48.089Z,23.60
2023-03-16T19:23:48.167Z,23.60
2023-03-16T19:24:48.242Z,23.61
2023-03-16T19:25:48.357Z,23.61
2023-03-16T19:26:48.421Z,23.60
2023-03-16T19:27:48.460Z,23.60
2023-03-16T19:28:48.556Z,23.59
2023-03-16T19:29:50.902Z,23.59
2023-03-16T19:30:48.633Z,23.59
2023-03-16T19:31:48.771Z,23.59
2023-03-16T19:32:48.668Z,23.58
2023-03-16T19:33:48.679Z,23.59
2023-03-16T19:34:48.722Z,23.59
2023-03-16T19:35:51.825Z,23.58
2023-03-16T19:36:48.749Z,23.57
2023-03-16T19:37:48.752Z,23.57
2023-03-16T19:38:48.793Z,23.57
2023-03-16T19:39:48.784Z,23.57
2023-03-16T19:40:48.790Z,23.58
2023-03-16T19:41:48.798Z,23.57
2023-03-16T19:42:48.856Z,23.58
2023-03-16T19:43:48.850Z,23.56
2023-03-16T19:44:48.846Z,23.57
2023-03-16T19:45:48.945Z,23.57
2023-03-16T19:46:48.914Z,23.57
2023-03-16T19:47:48.956Z,23.58
2023-03-16T19:48:48.933Z,23.57
2023-03-16T19:49:48.959Z,23.57
2023-03-16T19:50:48.985Z,23.57
2023-03-16T19:51:48.980Z,23.57
2023-03-16T19:52:49.003Z,23.56
2023-03-16T19:53:49.031Z,23.57
2023-03-16T19:54:49.065Z,23.56
2023-03-16T19:55:49.066Z,23.56
2023-03-16T19:56:49.085Z,23.57
2023-03-16T19:57:49.102Z,23.56
2023-03-16T19:58:49.093Z,23.57
2023-03-16T19:59:49.144Z,23.56
2023-03-16T20:00:49.147Z,23.56
2023-03-16T20:01:49.161Z,23.56
2023-03-16T20:02:49.164Z,23.56
2023-03-16T20:03:49.194Z,23.56
2023-03-16T20:04:49.180Z,23.56
2023-03-16T20:05:49.191Z,23.56
2023-03-16T20:06:50.021Z,23.56
2023-03-16T20:07:49.215Z,23.56
2023-03-16T20:08:49.247Z,23.56
2023-03-16T20:09:49.256Z,23.56
2023-03-16T20:10:49.238Z,23.56
2023-03-16T20:11:49.248Z,23.56
2023-03-16T20:12:49.266Z,23.55
2023-03-16T20:13:49.294Z,23.55
2023-03-16T20:14:49.297Z,23.56
2023-03-16T20:15:49.387Z,23.55
2023-03-16T20:16:49.476Z,23.55
2023-03-16T20:17:49.520Z,23.55
2023-03-16T20:18:49.594Z,23.55
2023-03-16T20:19:49.679Z,23.55
2023-03-16T20:20:49.764Z,23.56
2023-03-16T20:21:49.818Z,23.55
2023-03-16T20:22:49.895Z,23.55
2023-03-16T20:23:49.966Z,23.55
2023-03-16T20:24:50.092Z,23.55
2023-03-16T20:25:50.144Z,23.55
2023-03-16T20:26:50.210Z,23.54
2023-03-16T20:27:50.251Z,23.55
2023-03-16T20:28:50.335Z,23.54
2023-03-16T20:29:50.435Z,23.55
2023-03-16T20:30:50.487Z,23.55
2023-03-16T20:31:50.536Z,23.55
2023-03-16T20:32:50.683Z,23.54
2023-03-16T20:33:50.728Z,23.55
2023-03-16T20:34:50.777Z,23.54
2023-03-16T20:35:50.842Z,23.55
2023-03-16T20:36:50.885Z,23.55
2023-03-16T20:37:50.996Z,23.55
2023-03-16T20:38:51.025Z,23.54
2023-03-16T20:39:51.099Z,23.55
2023-03-16T20:40:51.225Z,23.54
2023-03-16T20:41:51.274Z,23.54
2023-03-16T20:42:51.324Z,23.54
2023-03-16T20:43:51.404Z,23.55
2023-03-16T20:44:51.581Z,23.54
2023-03-16T20:45:51.625Z,23.54
2023-03-16T20:46:51.641Z,23.54
2023-03-16T20:47:51.703Z,23.54
2023-03-16T20:48:51.798Z,23.55
2023-03-16T20:49:51.867Z,23.54
2023-03-16T20:50:51.928Z,23.53
2023-03-16T20:51:52.015Z,23.54
2023-03-16T20:52:52.135Z,23.54
2023-03-16T20:53:52.198Z,23.54
2023-03-16T20:54:52.273Z,23.53
2023-03-16T20:55:52.348Z,23.53
2023-03-16T20:56:52.405Z,23.54
2023-03-16T20:57:52.505Z,23.54
2023-03-16T20:58:52.600Z,23.54
2023-03-16T20:59:52.672Z,23.54
2023-03-16T21:00:52.723Z,23.54
2023-03-16T21:01:52.824Z,23.54
2023-03-16T21:02:52.892Z,23.54
2023-03-16T21:03:53.029Z,23.54
2023-03-16T21:04:53.136Z,23.54
2023-03-16T21:05:53.130Z,23.54
2023-03-16T21:06:53.194Z,23.53
2023-03-16T21:07:53.238Z,23.54
2023-03-16T21:08:53.333Z,23.54
2023-03-16T21:09:53.417Z,23.54
2023-03-16T21:10:53.450Z,23.53
2023-03-16T21:11:53.548Z,23.54
2023-03-16T21:12:53.568Z,23.54
2023-03-16T21:13:53.640Z,23.54
2023-03-16T21:14:53.700Z,23.53
2023-03-16T21:15:53.842Z,23.53
2023-03-16T21:16:53.816Z,23.54
2023-03-16T21:17:53.912Z,23.53
2023-03-16T21:18:54.003Z,23.53
2023-03-16T21:19:54.055Z,23.53
2023-03-16T21:20:54.121Z,23.53
2023-03-16T21:21:54.204Z,23.53
2023-03-16T21:22:54.260Z,23.54
2023-03-16T21:23:54.374Z,23.54
2023-03-16T21:24:54.431Z,23.54
2023-03-16T21:25:54.540Z,23.54
2023-03-16T21:26:54.595Z,23.54
2023-03-16T21:27:54.690Z,23.54
2023-03-16T21:28:54.732Z,23.54
2023-03-16T21:29:54.788Z,23.54
2023-03-16T21:30:54.912Z,23.54
2023-03-16T21:31:54.972Z,23.54
2023-03-16T21:32:55.067Z,23.54
2023-03-16T21:33:55.155Z,23.54
2023-03-16T21:34:55.192Z,23.54
2023-03-16T21:35:55.346Z,23.54
2023-03-16T21:36:55.344Z,23.54
2023-03-16T21:37:55.427Z,23.54
2023-03-16T21:38:55.488Z,23.54
2023-03-16T21:39:55.564Z,23.54
2023-03-16T21:40:55.657Z,23.54
2023-03-16T21:41:55.754Z,23.54
2023-03-16T21:42:55.810Z,23.55
2023-03-16T21:43:55.953Z,23.55
2023-03-16T21:44:55.931Z,23.54
2023-03-16T21:45:56.036Z,23.54
2023-03-16T21:46:56.132Z,23.54
2023-03-16T21:47:56.198Z,23.54
2023-03-16T21:48:56.233Z,23.54
2023-03-16T21:49:56.323Z,23.54
2023-03-16T21:50:56.379Z,23.53
2023-03-16T21:51:56.443Z,23.54
2023-03-16T21:52:56.526Z,23.54
2023-03-16T21:53:56.723Z,23.54
2023-03-16T21:54:56.663Z,23.53
2023-03-16T21:55:56.761Z,23.53
2023-03-16T21:56:56.787Z,23.53
2023-03-16T21:57:56.898Z,23.53
2023-03-16T21:58:56.956Z,23.53
2023-03-16T21:59:56.990Z,23.54
2023-03-16T22:00:57.128Z,23.54
2023-03-16T22:02:02.016Z,23.54
2023-03-16T22:02:58.306Z,23.53
2023-03-16T22:03:57.222Z,23.53
2023-03-16T22:04:57.203Z,23.53
2023-03-16T22:05:57.220Z,23.53
2023-03-16T22:06:57.236Z,23.54
2023-03-16T22:07:57.242Z,23.54
2023-03-16T22:08:57.250Z,23.54
2023-03-16T22:09:57.312Z,23.54
2023-03-16T22:10:57.311Z,23.53
2023-03-16T22:20:57.895Z,23.54
2023-03-16T22:21:57.957Z,23.54
2023-03-16T22:22:58.024Z,23.54
2023-03-16T22:23:58.138Z,23.54
2023-03-16T22:24:58.186Z,23.54
2023-03-16T22:25:58.253Z,23.54
2023-03-16T22:26:58.354Z,23.54
2023-03-16T22:27:58.433Z,23.54
2023-03-16T22:28:58.509Z,23.54
2023-03-16T22:29:58.581Z,23.54
2023-03-16T22:30:58.669Z,23.55